Time;durP1;ratioP1;P1;durP2;ratioP2;P2;SDS_P1;SDS_P2;PMS_P1;PMS_P2;Temp;Humidity;BMP_temperature;BMP_pressure;BME280_temperature;BME280_humidity;BME280_pressure;Samples;Min_cycle;Max_cycle;Signal;HPM_P1;HPM_P2
2023/06/05 00:00:22;;;;;;;8.20;7.40;;;16.00;99.90;;;;;;5059291;28;20053;-78
2023/06/05 00:02:51;;;;;;;10.05;8.05;;;16.00;99.90;;;;;;5066830;28;20033;-75
2023/06/05 00:05:18;;;;;;;11.05;7.50;;;16.00;99.90;;;;;;5066576;28;20603;-77
2023/06/05 00:07:47;;;;;;;11.20;7.75;;;15.90;99.90;;;;;;5070759;28;20502;-77
2023/06/05 00:10:14;;;;;;;13.07;7.10;;;15.90;99.90;;;;;;5071193;28;20047;-78
2023/06/05 00:12:42;;;;;;;12.35;7.20;;;15.90;99.90;;;;;;5053392;28;20676;-77
2023/06/05 00:15:10;;;;;;;12.02;8.52;;;15.80;99.90;;;;;;5070512;28;20040;-78
2023/06/05 00:17:38;;;;;;;11.38;7.75;;;15.70;99.90;;;;;;5070592;28;20052;-75
2023/06/05 00:20:09;;;;;;;11.05;8.25;;;15.70;99.90;;;;;;5070888;28;20041;-77
2023/06/05 00:22:37;;;;;;;10.38;8.20;;;15.70;99.90;;;;;;5071579;28;20048;-76
2023/06/05 00:25:07;;;;;;;9.70;7.68;;;15.60;99.90;;;;;;5052519;28;20127;-78
2023/06/05 00:27:35;;;;;;;10.32;7.70;;;15.60;99.90;;;;;;5063129;28;20539;-76
2023/06/05 00:30:02;;;;;;;10.25;7.45;;;15.60;99.90;;;;;;5072566;28;20045;-76
2023/06/05 00:32:29;;;;;;;14.90;6.60;;;15.60;99.90;;;;;;5070833;28;20044;-78
2023/06/05 00:34:57;;;;;;;10.60;7.15;;;15.60;99.90;;;;;;5070908;28;21857;-76
2023/06/05 00:37:24;;;;;;;11.50;7.32;;;15.60;99.90;;;;;;5070459;28;20508;-75
2023/06/05 00:39:52;;;;;;;12.02;7.07;;;15.50;99.90;;;;;;5068378;28;20036;-76
2023/06/05 00:42:21;;;;;;;12.02;7.55;;;15.50;99.90;;;;;;5068723;28;20480;-77
2023/06/05 00:44:48;;;;;;;11.73;6.97;;;15.50;99.90;;;;;;5052107;28;20051;-77
2023/06/05 00:47:16;;;;;;;10.15;7.10;;;15.50;99.90;;;;;;5070059;28;20561;-77
2023/06/05 00:49:45;;;;;;;10.77;7.00;;;15.50;99.90;;;;;;5051369;28;20527;-75
2023/06/05 00:52:13;;;;;;;8.43;7.00;;;15.40;99.90;;;;;;5070584;28;20036;-75
2023/06/05 00:54:41;;;;;;;10.93;7.30;;;15.40;99.90;;;;;;5070556;28;20037;-76
2023/06/05 00:57:09;;;;;;;8.80;6.60;;;15.40;99.90;;;;;;5070598;28;20052;-75
2023/06/05 00:59:40;;;;;;;14.63;6.97;;;15.40;99.90;;;;;;5068426;28;20040;-77
2023/06/05 01:02:07;;;;;;;9.75;6.82;;;15.40;99.90;;;;;;5039299;23;20083;-77
2023/06/05 01:04:36;;;;;;;9.15;6.30;;;15.40;99.90;;;;;;5015339;28;20046;-77
2023/06/05 01:07:05;;;;;;;8.88;6.75;;;15.40;99.90;;;;;;5019678;28;20108;-77
2023/06/05 01:09:33;;;;;;;9.80;6.78;;;15.30;99.90;;;;;;5009881;28;20034;-76
2023/06/05 01:12:05;;;;;;;9.88;6.60;;;15.30;99.90;;;;;;4999022;28;20538;-76
2023/06/05 01:14:38;;;;;;;7.25;5.97;;;15.40;99.90;;;;;;4998580;28;20053;-77
2023/06/05 01:17:10;;;;;;;12.13;6.68;;;15.40;99.90;;;;;;5006601;28;20034;-77
2023/06/05 01:19:39;;;;;;;8.85;6.53;;;15.40;99.90;;;;;;5016074;28;20449;-77
2023/06/05 01:22:07;;;;;;;8.57;6.45;;;15.30;99.90;;;;;;4998781;28;20434;-76
2023/06/05 01:24:36;;;;;;;11.43;7.10;;;15.30;99.90;;;;;;5011135;28;20065;-78
2023/06/05 01:27:09;;;;;;;14.85;7.63;;;15.30;99.90;;;;;;5011666;28;20053;-77
2023/06/05 01:29:42;;;;;;;8.77;6.60;;;15.20;99.90;;;;;;5013438;28;20065;-77
2023/06/05 01:32:17;;;;;;;10.52;6.90;;;15.20;99.90;;;;;;5009719;28;20250;-76
2023/06/05 01:34:48;;;;;;;8.45;6.85;;;15.20;99.90;;;;;;5020380;28;20068;-75
2023/06/05 01:37:18;;;;;;;11.23;6.35;;;15.10;99.90;;;;;;4995447;28;20053;-76
2023/06/05 01:39:49;;;;;;;9.88;6.70;;;15.10;99.90;;;;;;5024035;28;20061;-76
2023/06/05 01:42:18;;;;;;;10.90;6.85;;;15.10;99.90;;;;;;4997827;28;20064;-78
2023/06/05 01:44:46;;;;;;;11.15;7.40;;;15.10;99.90;;;;;;4996517;28;20038;-76
2023/06/05 01:47:14;;;;;;;10.95;6.72;;;15.10;99.90;;;;;;5016421;28;20477;-77
2023/06/05 01:49:42;;;;;;;10.38;7.03;;;15.00;99.90;;;;;;4995990;28;20052;-76
2023/06/05 01:52:09;;;;;;;11.57;7.22;;;14.90;99.90;;;;;;5022484;28;20048;-77
2023/06/05 01:54:38;;;;;;;8.73;6.93;;;14.90;99.90;;;;;;5006786;28;20549;-77
2023/06/05 01:57:09;;;;;;;11.45;7.05;;;14.80;99.90;;;;;;5007315;28;20040;-77
2023/06/05 01:59:36;;;;;;;22.85;13.95;;;14.80;99.90;;;;;;4999696;28;20038;-76
2023/06/05 02:02:04;;;;;;;10.63;7.00;;;14.90;99.90;;;;;;5012512;28;20510;-78
2023/06/05 02:04:32;;;;;;;8.65;6.97;;;14.90;99.90;;;;;;5039890;28;20049;-77
2023/06/05 02:07:03;;;;;;;13.48;8.38;;;14.90;99.90;;;;;;5029160;28;20045;-77
2023/06/05 02:09:32;;;;;;;11.75;6.53;;;14.90;99.90;;;;;;5041570;28;20076;-79
2023/06/05 02:12:03;;;;;;;17.85;7.57;;;14.90;99.90;;;;;;5030645;28;20037;-76
2023/06/05 02:14:35;;;;;;;16.55;10.45;;;14.80;99.90;;;;;;5043144;28;20052;-77
2023/06/05 02:17:06;;;;;;;22.48;12.15;;;14.70;99.90;;;;;;5039294;28;20041;-76
2023/06/05 02:19:34;;;;;;;15.40;9.75;;;14.70;99.90;;;;;;5023793;28;20079;-77
2023/06/05 02:22:01;;;;;;;14.73;8.95;;;14.70;99.90;;;;;;5036204;28;20084;-76
2023/06/05 02:24:28;;;;;;;10.23;7.63;;;14.70;99.90;;;;;;5040991;28;20441;-76
2023/06/05 02:26:56;;;;;;;11.27;7.32;;;14.70;99.90;;;;;;5026361;28;20044;-78
2023/06/05 02:29:24;;;;;;;10.07;7.60;;;14.70;99.90;;;;;;5040093;28;20040;-76
2023/06/05 02:31:53;;;;;;;9.85;6.70;;;14.60;99.90;;;;;;5043363;28;20112;-76
2023/06/05 02:34:20;;;;;;;12.18;7.25;;;14.70;99.90;;;;;;5060296;28;20025;-75
2023/06/05 02:36:50;;;;;;;10.93;7.20;;;14.70;99.90;;;;;;5061921;28;20045;-75
2023/06/05 02:39:17;;;;;;;12.63;7.30;;;14.70;99.90;;;;;;5047269;28;20041;-76
2023/06/05 02:41:45;;;;;;;8.27;7.25;;;14.60;99.90;;;;;;5037582;28;20057;-76
2023/06/05 02:44:13;;;;;;;10.35;7.15;;;14.60;99.90;;;;;;5029274;28;20041;-77
2023/06/05 02:46:40;;;;;;;13.32;6.93;;;14.50;99.90;;;;;;5049602;28;20048;-79
2023/06/05 02:49:10;;;;;;;9.50;6.63;;;14.40;99.90;;;;;;5032029;28;20043;-76
2023/06/05 02:51:37;;;;;;;11.27;6.90;;;14.40;99.90;;;;;;5041187;28;20401;-76
2023/06/05 02:54:06;;;;;;;9.45;7.28;;;14.40;99.90;;;;;;5020353;28;20076;-77
2023/06/05 02:56:34;;;;;;;10.00;7.15;;;14.40;99.90;;;;;;5013950;28;20055;-77
2023/06/05 02:59:03;;;;;;;14.02;6.90;;;14.40;99.90;;;;;;5017189;28;20041;-76
2023/06/05 03:01:34;;;;;;;7.82;6.25;;;14.40;99.90;;;;;;5031281;28;20076;-77
2023/06/05 03:04:06;;;;;;;9.48;6.50;;;14.50;99.90;;;;;;5032495;28;20077;-76
2023/06/05 03:06:38;;;;;;;10.32;7.13;;;14.50;99.90;;;;;;5023406;28;20049;-76
2023/06/05 03:09:09;;;;;;;9.52;7.53;;;14.50;99.90;;;;;;5052065;28;20124;-76
2023/06/05 03:11:36;;;;;;;10.10;7.07;;;14.50;99.90;;;;;;5048424;28;20099;-77
2023/06/05 03:14:04;;;;;;;13.40;7.55;;;14.50;99.90;;;;;;5048813;28;20099;-77
2023/06/05 03:16:41;;;;;;;10.27;6.43;;;14.50;99.90;;;;;;5049726;28;20040;-77
2023/06/05 03:19:10;;;;;;;8.63;7.18;;;14.60;99.90;;;;;;5029918;28;20083;-76
2023/06/05 03:21:41;;;;;;;14.38;7.10;;;14.60;99.90;;;;;;5028859;28;20057;-77
2023/06/05 03:24:12;;;;;;;10.18;7.28;;;14.60;99.90;;;;;;5056195;28;20045;-77
2023/06/05 03:26:41;;;;;;;8.57;6.47;;;14.70;99.90;;;;;;5026689;28;20064;-77
2023/06/05 03:29:11;;;;;;;14.13;7.10;;;14.70;99.90;;;;;;5032600;28;20603;-75
2023/06/05 03:31:38;;;;;;;11.30;6.00;;;14.80;99.90;;;;;;5028798;28;20072;-76
2023/06/05 03:34:06;;;;;;;15.95;7.32;;;14.80;99.90;;;;;;5020966;28;20045;-77
2023/06/05 03:36:37;;;;;;;9.38;6.75;;;14.90;99.90;;;;;;5026167;28;20098;-78
2023/06/05 03:39:08;;;;;;;13.05;6.97;;;15.00;99.90;;;;;;5027132;28;20053;-76
2023/06/05 03:41:39;;;;;;;10.73;7.68;;;15.10;99.90;;;;;;5038677;28;20525;-78
2023/06/05 03:44:08;;;;;;;12.63;6.93;;;15.10;99.90;;;;;;5036260;28;20033;-77
2023/06/05 03:46:37;;;;;;;11.00;6.47;;;15.20;99.90;;;;;;5063038;28;20033;-76
2023/06/05 03:49:08;;;;;;;8.73;5.57;;;15.30;99.90;;;;;;5082540;28;20104;-78
2023/06/05 03:51:37;;;;;;;12.05;6.45;;;15.40;99.90;;;;;;5063951;28;20041;-75
2023/06/05 03:54:05;;;;;;;10.73;6.93;;;15.50;99.90;;;;;;5059006;28;20065;-76
2023/06/05 03:56:34;;;;;;;8.50;6.15;;;15.60;99.90;;;;;;5055018;28;20051;-76
2023/06/05 03:59:18;;;;;;;11.52;6.43;;;15.90;99.90;;;;;;5061215;28;20048;-77
2023/06/05 04:01:46;;;;;;;7.25;5.15;;;16.10;99.90;;;;;;5064987;28;20049;-75
2023/06/05 04:04:14;;;;;;;7.97;5.35;;;16.30;99.90;;;;;;5046979;28;20064;-76
2023/06/05 04:06:43;;;;;;;8.02;5.00;;;16.50;99.90;;;;;;5054834;28;20115;-77
2023/06/05 04:09:12;;;;;;;8.27;5.38;;;16.70;99.90;;;;;;5071795;28;20053;-76
2023/06/05 04:11:44;;;;;;;12.32;6.72;;;17.00;99.90;;;;;;5020657;28;20041;-76
2023/06/05 04:14:13;;;;;;;8.80;5.07;;;17.20;99.90;;;;;;5045310;28;20087;-76
2023/06/05 04:16:43;;;;;;;8.75;5.00;;;17.40;99.90;;;;;;5034672;28;20044;-76
2023/06/05 04:19:14;;;;;;;7.05;4.72;;;17.70;99.90;;;;;;5025148;28;20041;-77
2023/06/05 04:21:44;;;;;;;7.95;5.18;;;18.30;99.90;;;;;;5021477;28;20056;-75
2023/06/05 04:24:13;;;;;;;13.15;7.40;;;18.90;99.90;;;;;;5021218;28;20061;-75
2023/06/05 04:26:42;;;;;;;11.68;5.88;;;19.40;99.90;;;;;;5040036;28;20128;-78
2023/06/05 04:29:13;;;;;;;9.82;5.82;;;19.70;99.90;;;;;;5023027;28;20045;-76
2023/06/05 04:31:42;;;;;;;9.15;6.22;;;19.30;99.90;;;;;;5053890;28;20587;-76
2023/06/05 04:34:10;;;;;;;10.05;5.88;;;19.10;99.90;;;;;;5027613;28;20037;-77
2023/06/05 04:36:38;;;;;;;9.38;5.15;;;19.30;99.90;;;;;;5022707;28;20119;-74
2023/06/05 04:39:07;;;;;;;6.00;4.60;;;19.80;99.90;;;;;;5044454;28;20128;-77
2023/06/05 04:41:36;;;;;;;10.48;5.45;;;20.20;99.90;;;;;;5015813;28;20476;-76
2023/06/05 04:44:06;;;;;;;7.20;4.63;;;20.90;99.90;;;;;;5013293;28;20053;-76
2023/06/05 04:46:33;;;;;;;6.25;4.57;;;21.40;99.90;;;;;;5018606;28;20051;-76
2023/06/05 04:49:02;;;;;;;9.65;4.43;;;21.60;99.90;;;;;;5023599;28;20052;-76
2023/06/05 04:51:30;;;;;;;9.18;4.53;;;21.80;99.90;;;;;;5027324;28;20041;-78
2023/06/05 04:53:57;;;;;;;6.82;4.45;;;21.40;99.90;;;;;;5037239;28;20625;-78
2023/06/05 04:56:25;;;;;;;8.18;4.32;;;21.70;99.90;;;;;;5042945;28;20347;-77
2023/06/05 04:58:53;;;;;;;15.93;7.50;;;22.10;99.90;;;;;;5032036;28;20130;-78
2023/06/05 05:01:24;;;;;;;10.50;8.02;;;22.90;99.90;;;;;;5040116;28;20076;-75
2023/06/05 05:03:52;;;;;;;10.82;6.30;;;23.60;99.90;;;;;;5049650;28;20084;-76
2023/06/05 05:06:20;;;;;;;11.45;7.70;;;23.90;99.90;;;;;;5050091;28;20041;-78
2023/06/05 05:08:49;;;;;;;8.27;4.82;;;24.10;99.90;;;;;;5032551;28;20041;-74
2023/06/05 05:11:17;;;;;;;19.55;13.13;;;24.30;99.90;;;;;;5041075;28;20404;-75
2023/06/05 05:13:44;;;;;;;9.40;4.50;;;24.50;99.90;;;;;;5033099;28;20198;-76
2023/06/05 05:16:12;;;;;;;26.95;11.80;;;25.10;99.90;;;;;;5051024;28;20481;-78
2023/06/05 05:18:42;;;;;;;9.35;6.95;;;25.90;99.90;;;;;;5049788;28;20052;-76
2023/06/05 05:21:09;;;;;;;10.13;4.75;;;26.40;99.90;;;;;;5032756;28;20041;-77
2023/06/05 05:23:37;;;;;;;9.15;4.30;;;26.70;97.40;;;;;;5031490;28;20045;-78
2023/06/05 05:26:05;;;;;;;11.18;6.20;;;27.00;96.20;;;;;;5048598;28;20485;-78
2023/06/05 05:28:32;;;;;;;9.25;5.32;;;27.30;94.50;;;;;;5035753;28;20144;-77
2023/06/05 05:31:00;;;;;;;189.43;26.35;;;27.70;92.90;;;;;;5029379;28;20131;-76
2023/06/05 05:33:28;;;;;;;17.50;6.95;;;27.80;91.70;;;;;;5055800;28;20075;-77
2023/06/05 05:35:57;;;;;;;7.43;4.40;;;27.40;91.70;;;;;;5057719;28;20132;-77
2023/06/05 05:38:25;;;;;;;7.32;4.72;;;27.20;92.00;;;;;;5045059;28;20049;-77
2023/06/05 05:40:52;;;;;;;8.57;5.57;;;26.80;93.20;;;;;;5028702;28;20038;-77
2023/06/05 05:43:20;;;;;;;9.32;5.65;;;26.70;93.70;;;;;;5030519;28;20045;-75
2023/06/05 05:45:48;;;;;;;12.10;6.75;;;26.90;94.10;;;;;;5026158;28;20069;-75
2023/06/05 05:48:15;;;;;;;11.95;8.45;;;26.90;94.40;;;;;;5037509;28;20041;-76
2023/06/05 05:50:43;;;;;;;9.43;7.95;;;27.10;93.50;;;;;;5038056;28;20067;-75
2023/06/05 05:53:11;;;;;;;8.98;5.82;;;27.30;93.10;;;;;;5040331;28;20092;-75
2023/06/05 05:55:39;;;;;;;10.27;7.35;;;27.50;92.40;;;;;;5040013;28;20090;-76
2023/06/05 05:58:07;;;;;;;8.23;5.45;;;27.80;92.20;;;;;;5041325;28;20044;-76
2023/06/05 06:00:35;;;;;;;8.00;4.95;;;28.40;90.80;;;;;;5039519;28;20069;-79
2023/06/05 06:03:03;;;;;;;6.70;5.05;;;28.80;89.60;;;;;;5039023;28;20405;-78
2023/06/05 06:05:30;;;;;;;8.65;5.30;;;28.60;87.70;;;;;;5038929;28;20670;-76
2023/06/05 06:07:59;;;;;;;8.02;4.82;;;28.40;87.80;;;;;;5037659;28;20052;-75
2023/06/05 06:10:28;;;;;;;7.88;5.10;;;27.90;88.70;;;;;;5040702;28;20041;-75
2023/06/05 06:12:56;;;;;;;8.18;5.93;;;27.70;90.20;;;;;;5038954;28;20041;-76
2023/06/05 06:15:23;;;;;;;12.13;6.05;;;27.70;90.70;;;;;;5038253;28;20047;-77
2023/06/05 06:17:51;;;;;;;8.00;6.55;;;27.80;90.10;;;;;;5020210;28;20072;-75
2023/06/05 06:20:18;;;;;;;12.13;9.27;;;27.60;90.20;;;;;;5046535;28;20511;-76
2023/06/05 06:22:46;;;;;;;7.30;5.35;;;27.50;90.50;;;;;;5056109;28;20049;-75
2023/06/05 06:25:15;;;;;;;7.28;5.20;;;26.80;91.50;;;;;;5057647;28;20121;-76
2023/06/05 06:27:48;;;;;;;7.32;5.20;;;26.10;92.60;;;;;;5030398;28;20119;-75
2023/06/05 06:30:15;;;;;;;152.23;13.75;;;25.70;94.10;;;;;;5053988;28;20080;-74
2023/06/05 06:32:43;;;;;;;9.30;5.63;;;25.40;96.00;;;;;;5060373;28;20055;-79
2023/06/05 06:35:14;;;;;;;13.95;8.90;;;25.00;98.90;;;;;;5060865;28;20046;-77
2023/06/05 06:37:44;;;;;;;11.35;5.75;;;24.70;99.90;;;;;;5041954;28;20054;-76
2023/06/05 06:40:14;;;;;;;11.13;8.02;;;24.60;99.90;;;;;;5039162;28;20057;-76
2023/06/05 06:42:42;;;;;;;9.82;6.25;;;24.70;99.90;;;;;;5059313;28;20067;-76
2023/06/05 06:45:22;;;;;;;5.30;4.40;;;24.90;99.90;;;;;;5038898;28;20045;-74
2023/06/05 06:47:50;;;;;;;6.82;5.72;;;25.40;99.90;;;;;;5058426;28;20049;-74
2023/06/05 06:50:17;;;;;;;13.32;9.85;;;25.80;99.90;;;;;;5058816;28;20055;-73
2023/06/05 06:52:45;;;;;;;8.10;4.35;;;26.00;99.90;;;;;;5046163;28;20037;-77
2023/06/05 06:55:13;;;;;;;5.85;4.10;;;26.00;99.90;;;;;;5040085;28;20076;-75
2023/06/05 06:57:41;;;;;;;6.15;3.88;;;25.70;99.90;;;;;;5038589;28;20076;-78
2023/06/05 07:00:09;;;;;;;9.48;4.18;;;25.60;99.90;;;;;;5039841;28;20049;-76
2023/06/05 07:02:40;;;;;;;4.95;3.63;;;25.30;99.90;;;;;;5055931;23;20048;-78
2023/06/05 07:05:07;;;;;;;6.80;5.10;;;25.40;99.90;;;;;;5044155;28;20041;-77
2023/06/05 07:07:35;;;;;;;8.57;6.60;;;25.80;99.90;;;;;;5044899;28;20037;-77
2023/06/05 07:10:03;;;;;;;5.32;4.82;;;25.60;99.90;;;;;;5048553;28;20059;-77
2023/06/05 07:12:30;;;;;;;8.90;5.25;;;25.10;99.90;;;;;;5072328;28;20072;-78
2023/06/05 07:14:57;;;;;;;7.07;4.45;;;24.70;99.90;;;;;;5077313;28;20514;-78
2023/06/05 07:17:27;;;;;;;7.93;5.22;;;25.30;99.90;;;;;;5076916;28;20093;-76
2023/06/05 07:19:56;;;;;;;8.10;4.35;;;25.50;99.90;;;;;;5078514;28;20439;-78
2023/06/05 07:22:24;;;;;;;11.88;5.10;;;25.70;99.90;;;;;;5077092;28;20055;-79
2023/06/05 07:24:53;;;;;;;5.20;4.70;;;25.70;99.90;;;;;;5077130;28;20580;-78
2023/06/05 07:27:21;;;;;;;6.95;4.82;;;26.20;99.90;;;;;;5078135;28;20037;-78
2023/06/05 07:29:48;;;;;;;5.95;5.07;;;26.50;99.90;;;;;;5077684;28;20049;-77
2023/06/05 07:32:16;;;;;;;6.85;4.68;;;26.40;99.90;;;;;;5078651;28;20609;-78
2023/06/05 07:34:43;;;;;;;9.80;6.63;;;27.00;99.90;;;;;;5078053;28;20043;-77
2023/06/05 07:37:12;;;;;;;13.05;6.20;;;27.20;99.20;;;;;;5078037;28;20514;-78
2023/06/05 07:39:39;;;;;;;9.18;5.30;;;27.50;97.80;;;;;;5076682;28;20055;-78
2023/06/05 07:42:07;;;;;;;9.25;8.30;;;27.80;96.10;;;;;;5077765;28;20158;-78
2023/06/05 07:44:34;;;;;;;9.88;6.68;;;28.00;95.00;;;;;;5072668;28;20041;-79
2023/06/05 07:47:02;;;;;;;9.20;5.80;;;27.90;93.90;;;;;;5069034;28;20044;-79
2023/06/05 07:49:31;;;;;;;11.07;9.25;;;27.90;94.30;;;;;;5076797;28;20037;-78
2023/06/05 07:51:59;;;;;;;6.97;5.40;;;28.00;94.00;;;;;;5078060;28;20094;-78
2023/06/05 07:54:28;;;;;;;13.13;9.88;;;28.10;93.50;;;;;;5076980;28;20055;-78
2023/06/05 07:56:57;;;;;;;7.90;5.60;;;28.10;92.80;;;;;;5076258;28;20043;-77
2023/06/05 07:59:27;;;;;;;10.02;6.63;;;28.00;93.40;;;;;;5076897;28;20044;-78
2023/06/05 08:01:55;;;;;;;7.40;5.25;;;27.90;92.70;;;;;;5074026;28;20048;-77
2023/06/05 08:04:24;;;;;;;8.65;7.18;;;27.70;92.30;;;;;;5078181;28;20040;-77
2023/06/05 08:06:52;;;;;;;7.72;5.95;;;27.40;93.10;;;;;;5076725;28;20048;-79
2023/06/05 08:09:19;;;;;;;9.20;6.25;;;27.30;93.30;;;;;;5076940;28;20048;-78
2023/06/05 08:11:49;;;;;;;7.80;5.80;;;27.70;92.50;;;;;;5057787;28;20045;-78
2023/06/05 08:14:16;;;;;;;8.07;5.18;;;27.80;91.70;;;;;;5075210;28;20041;-78
2023/06/05 08:16:45;;;;;;;7.72;5.85;;;27.50;93.70;;;;;;5057900;28;20079;-77
2023/06/05 08:19:12;;;;;;;8.57;6.00;;;27.20;93.40;;;;;;5077385;28;20123;-78
2023/06/05 08:21:40;;;;;;;8.98;6.15;;;26.70;94.10;;;;;;5083593;28;20079;-80
2023/06/05 08:24:07;;;;;;;11.05;6.20;;;26.70;93.90;;;;;;5067436;28;20111;-78
2023/06/05 08:26:36;;;;;;;9.95;6.22;;;27.00;94.50;;;;;;5086440;28;20055;-78
2023/06/05 08:29:06;;;;;;;8.45;7.65;;;27.40;94.10;;;;;;5090448;28;20322;-78
2023/06/05 08:31:36;;;;;;;12.10;8.30;;;27.50;93.80;;;;;;5090178;28;20496;-77
2023/06/05 08:34:04;;;;;;;11.35;6.93;;;27.80;93.00;;;;;;5090808;28;20051;-77
2023/06/05 08:36:32;;;;;;;11.48;8.50;;;28.00;92.70;;;;;;5090703;28;20039;-77
2023/06/05 08:39:00;;;;;;;10.45;6.57;;;27.80;92.40;;;;;;5089259;28;20050;-76
2023/06/05 08:41:28;;;;;;;10.98;7.03;;;27.60;92.30;;;;;;5089663;28;20040;-77
2023/06/05 08:43:55;;;;;;;8.95;6.18;;;27.40;93.10;;;;;;5089395;28;20040;-78
2023/06/05 08:46:29;;;;;;;7.68;6.22;;;27.20;93.60;;;;;;5071689;28;20413;-78
2023/06/05 08:48:58;;;;;;;11.10;7.30;;;27.10;94.10;;;;;;5088695;28;20418;-79
2023/06/05 08:51:26;;;;;;;10.80;7.68;;;27.20;94.70;;;;;;5090211;28;20040;-76
2023/06/05 08:53:58;;;;;;;18.65;10.35;;;27.40;95.00;;;;;;5090285;28;20524;-77
2023/06/05 08:56:27;;;;;;;14.98;10.15;;;27.60;94.80;;;;;;5071313;28;20046;-79
2023/06/05 08:58:55;;;;;;;15.30;10.38;;;27.60;94.90;;;;;;5089599;28;20040;-78
2023/06/05 09:01:25;;;;;;;13.63;7.50;;;27.80;94.90;;;;;;5090647;28;20590;-78
2023/06/05 09:03:53;;;;;;;15.80;8.70;;;27.80;93.90;;;;;;5090243;28;20036;-79
2023/06/05 09:06:20;;;;;;;11.80;7.15;;;27.80;93.60;;;;;;5090009;28;20044;-78
2023/06/05 09:08:48;;;;;;;14.93;10.10;;;27.90;93.80;;;;;;5088682;28;20054;-79
2023/06/05 09:11:26;;;;;;;13.80;9.85;;;28.00;93.70;;;;;;5089855;28;20097;-78
2023/06/05 09:13:55;;;;;;;10.07;8.02;;;28.10;94.20;;;;;;5089899;28;20504;-78
2023/06/05 09:16:34;;;;;;;15.35;8.40;;;28.00;93.40;;;;;;5088615;28;20044;-77
2023/06/05 09:19:02;;;;;;;10.40;8.73;;;28.10;92.80;;;;;;5070557;28;20504;-78
2023/06/05 09:21:32;;;;;;;16.42;9.98;;;28.20;93.00;;;;;;5087922;28;20040;-78
2023/06/05 09:24:22;;;;;;;12.63;9.80;;;28.10;92.70;;;;;;5089870;28;20160;-78
2023/06/05 09:26:51;;;;;;;9.70;8.45;;;28.00;92.80;;;;;;5083233;28;20036;-78
2023/06/05 09:29:28;;;;;;;12.45;9.60;;;27.80;93.10;;;;;;5089219;28;20119;-79
2023/06/05 09:31:58;;;;;;;14.52;9.32;;;27.90;93.50;;;;;;5088724;28;20050;-77
2023/06/05 09:34:28;;;;;;;12.35;8.70;;;28.00;93.60;;;;;;5090763;28;20040;-78
2023/06/05 09:36:57;;;;;;;10.95;8.02;;;28.10;93.00;;;;;;5086455;28;20040;-78
2023/06/05 09:39:28;;;;;;;8.70;7.55;;;28.00;92.60;;;;;;5088011;28;20064;-76
2023/06/05 09:41:56;;;;;;;10.38;6.78;;;28.10;92.30;;;;;;5070208;28;20512;-78
2023/06/05 09:44:25;;;;;;;11.45;7.25;;;28.40;91.80;;;;;;5088961;28;20051;-78
2023/06/05 09:46:54;;;;;;;9.40;6.85;;;28.40;91.30;;;;;;5088284;28;20071;-79
2023/06/05 09:49:26;;;;;;;9.35;6.28;;;28.60;90.80;;;;;;5088517;28;20430;-78
2023/06/05 09:51:55;;;;;;;10.85;7.32;;;28.60;90.60;;;;;;5088969;28;20040;-78
2023/06/05 09:54:25;;;;;;;7.30;5.60;;;28.60;90.60;;;;;;5088049;28;20043;-78
2023/06/05 09:56:58;;;;;;;7.55;5.93;;;28.30;90.40;;;;;;5070476;28;20040;-78
2023/06/05 09:59:28;;;;;;;10.60;6.53;;;28.20;91.00;;;;;;5088842;28;20036;-77
2023/06/05 10:01:57;;;;;;;8.93;6.50;;;28.10;91.60;;;;;;5088323;28;20050;-77
2023/06/05 10:04:28;;;;;;;10.07;6.93;;;27.90;91.60;;;;;;5088389;28;20036;-79
2023/06/05 10:07:01;;;;;;;13.35;7.60;;;27.60;92.30;;;;;;5088121;28;20046;-79
2023/06/05 10:09:30;;;;;;;10.40;7.97;;;27.50;92.90;;;;;;5087508;28;20495;-77
2023/06/05 10:11:58;;;;;;;13.65;8.98;;;27.40;93.80;;;;;;5087684;28;20036;-78
2023/06/05 10:14:26;;;;;;;16.02;8.05;;;27.30;94.90;;;;;;5068723;28;20044;-79
2023/06/05 10:16:54;;;;;;;8.90;8.00;;;27.40;95.40;;;;;;5085957;28;20036;-77
2023/06/05 10:19:24;;;;;;;11.25;9.82;;;27.30;95.50;;;;;;5088559;28;20055;-79
2023/06/05 10:21:53;;;;;;;8.70;6.72;;;27.10;96.30;;;;;;5087887;28;20044;-78
2023/06/05 10:24:24;;;;;;;25.05;8.55;;;27.00;97.30;;;;;;5088808;28;20082;-79
2023/06/05 10:27:24;;;;;;;18.13;9.15;;;26.90;98.30;;;;;;5088109;28;20047;-78
2023/06/05 10:30:13;;;;;;;22.10;8.65;;;27.30;98.40;;;;;;5082930;28;20040;-77
2023/06/05 10:32:57;;;;;;;14.13;7.55;;;27.60;98.10;;;;;;5089478;28;20155;-78
2023/06/05 10:35:38;;;;;;;7.70;6.10;;;27.30;99.10;;;;;;5087621;28;20430;-77
2023/06/05 10:38:17;;;;;;;7.75;6.10;;;27.60;98.50;;;;;;5086699;28;20130;-76
2023/06/05 10:40:46;;;;;;;9.63;5.45;;;27.80;98.40;;;;;;5086848;28;20047;-77
2023/06/05 10:43:27;;;;;;;7.88;5.95;;;28.30;96.80;;;;;;5088981;28;20048;-79
2023/06/05 10:45:56;;;;;;;11.50;6.65;;;28.80;95.30;;;;;;5086847;28;20051;-77
2023/06/05 10:49:15;;;;;;;9.10;6.72;;;29.00;94.70;;;;;;5087038;28;20032;-78
2023/06/05 10:51:44;;;;;;;6.55;5.85;;;29.10;93.70;;;;;;5087475;28;20048;-78
2023/06/05 10:54:15;;;;;;;10.45;7.05;;;29.30;92.70;;;;;;5087847;28;20077;-77
2023/06/05 10:57:02;;;;;;;9.75;6.45;;;29.40;92.90;;;;;;5087774;28;20135;-78
2023/06/05 10:59:31;;;;;;;11.98;8.93;;;29.80;92.30;;;;;;5086136;28;20511;-78
2023/06/05 11:02:24;;;;;;;10.68;9.43;;;29.90;91.60;;;;;;5086686;28;20040;-79
2023/06/05 11:05:11;;;;;;;9.77;7.63;;;29.90;91.50;;;;;;5087148;28;20681;-77
2023/06/05 11:07:39;;;;;;;22.10;16.27;;;29.80;91.40;;;;;;5086342;28;20047;-78
2023/06/05 11:10:09;;;;;;;22.00;12.45;;;29.70;91.70;;;;;;5069608;28;20044;-77
2023/06/05 11:12:58;;;;;;;25.42;14.38;;;28.90;92.70;;;;;;5071411;28;20413;-79
2023/06/05 11:15:43;;;;;;;26.88;16.48;;;28.60;93.90;;;;;;5091943;28;20040;-78
2023/06/05 11:18:34;;;;;;;25.20;15.02;;;27.70;95.80;;;;;;5085984;28;20315;-78
2023/06/05 11:21:03;;;;;;;30.45;17.25;;;27.50;98.60;;;;;;5087326;28;20048;-77
2023/06/05 11:23:31;;;;;;;27.92;16.90;;;27.40;99.90;;;;;;5087436;28;20580;-78
2023/06/05 11:26:20;;;;;;;44.65;24.60;;;27.40;99.90;;;;;;5086089;28;20048;-78
2023/06/05 11:28:47;;;;;;;33.50;19.23;;;27.50;99.90;;;;;;5084413;28;20049;-79
2023/06/05 11:31:31;;;;;;;26.83;16.75;;;27.30;99.90;;;;;;5087348;28;20043;-78
2023/06/05 11:33:58;;;;;;;27.65;15.90;;;27.50;99.90;;;;;;5086883;28;20036;-78
2023/06/05 11:36:28;;;;;;;30.55;16.23;;;27.60;99.90;;;;;;5087537;28;20048;-79
2023/06/05 11:38:57;;;;;;;24.50;17.10;;;27.80;99.90;;;;;;5086901;28;20064;-78
2023/06/05 11:41:26;;;;;;;20.92;14.82;;;27.80;99.90;;;;;;5087170;28;20028;-77
2023/06/05 11:43:53;;;;;;;21.75;13.10;;;27.80;99.90;;;;;;5087448;28;20119;-86
2023/06/05 11:46:21;;;;;;;17.00;11.55;;;27.50;99.90;;;;;;5086219;28;20438;-83
2023/06/05 11:48:48;;;;;;;113.05;82.90;;;27.50;99.90;;;;;;5086227;28;20051;-80
2023/06/05 11:51:15;;;;;;;123.15;95.80;;;27.50;99.90;;;;;;5086839;28;20040;-81
2023/06/05 11:53:49;;;;;;;24.58;19.65;;;27.50;99.90;;;;;;5087434;28;20043;-79
2023/06/05 11:56:17;;;;;;;298.50;251.63;;;27.80;99.90;;;;;;5087641;28;20040;-82
2023/06/05 11:58:45;;;;;;;25.67;19.33;;;28.00;99.90;;;;;;5087020;28;20047;-76
2023/06/05 12:01:21;;;;;;;19.27;12.13;;;27.90;99.90;;;;;;5087309;28;20111;-80
2023/06/05 12:03:50;;;;;;;23.30;17.05;;;28.00;99.90;;;;;;5091174;28;20046;-80
2023/06/05 12:06:17;;;;;;;20.48;16.98;;;28.10;99.90;;;;;;5090048;28;20051;-80
2023/06/05 12:08:45;;;;;;;17.70;13.23;;;28.20;99.90;;;;;;5090053;28;20040;-79
2023/06/05 12:11:25;;;;;;;14.60;10.88;;;28.30;99.90;;;;;;5091391;28;20044;-82
2023/06/05 12:13:54;;;;;;;44.88;10.98;;;28.60;99.90;;;;;;5089745;28;20055;-81
2023/06/05 12:16:31;;;;;;;13.70;10.77;;;28.80;99.90;;;;;;5091256;28;20053;-80
2023/06/05 12:18:58;;;;;;;16.98;14.95;;;28.70;99.90;;;;;;5090163;28;20070;-80
2023/06/05 12:21:27;;;;;;;21.20;12.15;;;28.70;99.90;;;;;;5091155;28;20410;-79
2023/06/05 12:24:03;;;;;;;11.52;9.98;;;28.90;99.90;;;;;;5090413;28;20653;-78
2023/06/05 12:26:48;;;;;;;16.33;9.48;;;29.00;99.90;;;;;;5091341;28;20151;-80
2023/06/05 12:29:17;;;;;;;11.70;9.02;;;28.90;99.90;;;;;;5090400;28;20059;-79
2023/06/05 12:31:44;;;;;;;11.88;8.93;;;28.50;99.90;;;;;;5070320;28;20056;-80
2023/06/05 12:34:12;;;;;;;10.25;8.35;;;27.90;99.90;;;;;;5090782;28;20050;-81
2023/06/05 12:36:42;;;;;;;16.70;13.88;;;27.60;99.90;;;;;;5090367;28;20040;-78
2023/06/05 12:39:12;;;;;;;10.68;9.20;;;27.30;99.90;;;;;;5089983;28;20051;-81
2023/06/05 12:41:41;;;;;;;9.93;8.43;;;27.00;99.90;;;;;;5090101;28;20064;-79
2023/06/05 12:44:09;;;;;;;12.68;9.10;;;26.70;99.90;;;;;;5090524;28;20047;-80
2023/06/05 12:46:37;;;;;;;10.90;9.05;;;26.50;99.90;;;;;;5090303;28;20040;-81
2023/06/05 12:49:06;;;;;;;10.60;9.38;;;26.30;99.90;;;;;;5088281;28;20472;-80
2023/06/05 12:51:33;;;;;;;15.40;12.25;;;25.90;99.90;;;;;;5094000;28;20108;-79